sensor_id;sensor_type;location;lat;lon;timestamp;pressure;altitude;pressure_sealevel;temperature;humidity
14242;BME280;7205;50.864;12.766;2023-02-13T00:00:24;99754.28;;;8.60;98.47
14242;BME280;7205;50.864;12.766;2023-02-13T00:02:51;99751.78;;;8.58;98.44
14242;BME280;7205;50.864;12.766;2023-02-13T00:05:19;99751.25;;;8.53;98.21
14242;BME280;7205;50.864;12.766;2023-02-13T00:07:46;99750.53;;;8.51;98.34
14242;BME280;7205;50.864;12.766;2023-02-13T00:10:13;99748.00;;;8.50;98.57
14242;BME280;7205;50.864;12.766;2023-02-13T00:12:39;99756.03;;;8.48;98.46
14242;BME280;7205;50.864;12.766;2023-02-13T00:15:08;99749.06;;;8.47;98.45
14242;BME280;7205;50.864;12.766;2023-02-13T00:17:35;99752.53;;;8.48;98.27
14242;BME280;7205;50.864;12.766;2023-02-13T00:20:02;99757.81;;;8.48;98.44
14242;BME280;7205;50.864;12.766;2023-02-13T00:22:34;99748.34;;;8.45;98.75
14242;BME280;7205;50.864;12.766;2023-02-13T00:25:01;99753.50;;;8.47;98.38
14242;BME280;7205;50.864;12.766;2023-02-13T00:27:27;99752.66;;;8.46;98.63
14242;BME280;7205;50.864;12.766;2023-02-13T00:29:54;99750.00;;;8.46;99.02
14242;BME280;7205;50.864;12.766;2023-02-13T00:32:21;99748.22;;;8.47;98.60
14242;BME280;7205;50.864;12.766;2023-02-13T00:34:48;99745.59;;;8.47;99.40
14242;BME280;7205;50.864;12.766;2023-02-13T00:37:15;99742.97;;;8.47;98.77
14242;BME280;7205;50.864;12.766;2023-02-13T00:39:44;99746.41;;;8.47;98.82
14242;BME280;7205;50.864;12.766;2023-02-13T00:42:11;99745.47;;;8.48;98.89
14242;BME280;7205;50.864;12.766;2023-02-13T00:44:37;99735.81;;;8.49;98.93
14242;BME280;7205;50.864;12.766;2023-02-13T00:47:04;99737.47;;;8.50;98.51
14242;BME280;7205;50.864;12.766;2023-02-13T00:49:31;99740.22;;;8.48;98.75
14242;BME280;7205;50.864;12.766;2023-02-13T00:52:00;99738.50;;;8.47;98.93
14242;BME280;7205;50.864;12.766;2023-02-13T00:54:27;99739.38;;;8.48;98.39
14242;BME280;7205;50.864;12.766;2023-02-13T00:56:55;99740.34;;;8.47;98.67
14242;BME280;7205;50.864;12.766;2023-02-13T00:59:59;99737.06;;;8.43;98.45
14242;BME280;7205;50.864;12.766;2023-02-13T01:02:28;99748.22;;;8.47;99.08
14242;BME280;7205;50.864;12.766;2023-02-13T01:04:55;99748.34;;;8.45;98.26
14242;BME280;7205;50.864;12.766;2023-02-13T01:07:23;99748.34;;;8.45;98.68
14242;BME280;7205;50.864;12.766;2023-02-13T01:09:50;99746.66;;;8.44;98.14
14242;BME280;7205;50.864;12.766;2023-02-13T01:12:19;99746.75;;;8.43;98.46
14242;BME280;7205;50.864;12.766;2023-02-13T01:14:46;99756.34;;;8.44;98.51
14242;BME280;7205;50.864;12.766;2023-02-13T01:17:13;99745.91;;;8.42;98.46
14242;BME280;7205;50.864;12.766;2023-02-13T01:19:41;99745.91;;;8.42;98.56
14242;BME280;7205;50.864;12.766;2023-02-13T01:22:08;99748.53;;;8.42;98.48
14242;BME280;7205;50.864;12.766;2023-02-13T01:24:35;99745.91;;;8.42;98.04
14242;BME280;7205;50.864;12.766;2023-02-13T01:27:02;99747.72;;;8.42;97.80
14242;BME280;7205;50.864;12.766;2023-02-13T01:29:30;99744.25;;;8.41;98.45
14242;BME280;7205;50.864;12.766;2023-02-13T01:31:57;99749.50;;;8.41;97.66
14242;BME280;7205;50.864;12.766;2023-02-13T01:34:27;99743.38;;;8.41;97.86
14242;BME280;7205;50.864;12.766;2023-02-13T01:36:54;99740.88;;;8.39;97.28
14242;BME280;7205;50.864;12.766;2023-02-13T01:39:23;99737.41;;;8.39;97.90
14242;BME280;7205;50.864;12.766;2023-02-13T01:41:50;99734.03;;;8.37;97.62
14242;BME280;7205;50.864;12.766;2023-02-13T01:44:47;99734.03;;;8.37;97.12
14242;BME280;7205;50.864;12.766;2023-02-13T01:47:17;99736.78;;;8.35;97.17
14242;BME280;7205;50.864;12.766;2023-02-13T01:49:46;99725.28;;;8.36;97.67
14242;BME280;7205;50.864;12.766;2023-02-13T01:52:15;99734.03;;;8.37;97.87
14242;BME280;7205;50.864;12.766;2023-02-13T01:54:43;99732.97;;;8.39;98.06
14242;BME280;7205;50.864;12.766;2023-02-13T01:57:14;99731.94;;;8.42;97.41
14242;BME280;7205;50.864;12.766;2023-02-13T01:59:49;99723.28;;;8.40;97.37
14242;BME280;7205;50.864;12.766;2023-02-13T02:02:18;99724.03;;;8.42;97.56
14242;BME280;7205;50.864;12.766;2023-02-13T02:04:45;99726.78;;;8.40;97.05
14242;BME280;7205;50.864;12.766;2023-02-13T02:07:20;99722.31;;;8.41;96.84
14242;BME280;7205;50.864;12.766;2023-02-13T02:09:51;99720.66;;;8.40;96.44
14242;BME280;7205;50.864;12.766;2023-02-13T02:12:23;99713.59;;;8.40;96.78
14242;BME280;7205;50.864;12.766;2023-02-13T02:14:54;99714.31;;;8.42;97.22
14242;BME280;7205;50.864;12.766;2023-02-13T02:17:24;99721.28;;;8.43;96.68
14242;BME280;7205;50.864;12.766;2023-02-13T02:20:00;99716.00;;;8.43;96.69
14242;BME280;7205;50.864;12.766;2023-02-13T02:22:45;99717.91;;;8.41;96.35
14242;BME280;7205;50.864;12.766;2023-02-13T02:25:26;99706.53;;;8.41;96.62
14242;BME280;7205;50.864;12.766;2023-02-13T02:28:22;99714.66;;;8.38;95.97
14242;BME280;7205;50.864;12.766;2023-02-13T02:31:15;99712.13;;;8.36;95.87
14242;BME280;7205;50.864;12.766;2023-02-13T02:33:59;99707.84;;;8.35;95.54
14242;BME280;7205;50.864;12.766;2023-02-13T02:36:44;99703.72;;;8.31;95.93
14242;BME280;7205;50.864;12.766;2023-02-13T02:39:26;99701.09;;;8.31;95.84
14242;BME280;7205;50.864;12.766;2023-02-13T02:42:02;99705.50;;;8.31;95.76
14242;BME280;7205;50.864;12.766;2023-02-13T02:44:41;99698.69;;;8.28;95.36
14242;BME280;7205;50.864;12.766;2023-02-13T02:47:17;99697.84;;;8.28;95.64
14242;BME280;7205;50.864;12.766;2023-02-13T02:50:15;99704.19;;;8.25;94.76
14242;BME280;7205;50.864;12.766;2023-02-13T02:52:57;99697.41;;;8.21;94.84
14242;BME280;7205;50.864;12.766;2023-02-13T02:55:38;99703.75;;;8.19;94.73
14242;BME280;7205;50.864;12.766;2023-02-13T02:58:14;99704.78;;;8.16;94.76
14242;BME280;7205;50.864;12.766;2023-02-13T03:01:01;99696.16;;;8.14;94.54
14242;BME280;7205;50.864;12.766;2023-02-13T03:03:48;99695.41;;;8.12;94.94
14242;BME280;7205;50.864;12.766;2023-02-13T03:06:37;99685.13;;;8.09;94.83
14242;BME280;7205;50.864;12.766;2023-02-13T03:09:13;99683.34;;;8.10;95.11
14242;BME280;7205;50.864;12.766;2023-02-13T03:11:58;99678.09;;;8.10;94.67
14242;BME280;7205;50.864;12.766;2023-02-13T03:14:43;99678.94;;;8.10;95.13
14242;BME280;7205;50.864;12.766;2023-02-13T03:17:12;99676.31;;;8.10;95.10
14242;BME280;7205;50.864;12.766;2023-02-13T03:20:15;99683.34;;;8.10;94.63
14242;BME280;7205;50.864;12.766;2023-02-13T03:23:11;99684.81;;;8.14;94.64
14242;BME280;7205;50.864;12.766;2023-02-13T03:26:05;99686.59;;;8.13;94.42
14242;BME280;7205;50.864;12.766;2023-02-13T03:28:35;99695.34;;;8.14;94.68
14242;BME280;7205;50.864;12.766;2023-02-13T03:31:30;99701.31;;;8.16;94.36
14242;BME280;7205;50.864;12.766;2023-02-13T03:34:01;99691.63;;;8.16;94.29
14242;BME280;7205;50.864;12.766;2023-02-13T03:36:41;99701.13;;;8.19;94.71
14242;BME280;7205;50.864;12.766;2023-02-13T03:39:35;99708.06;;;8.20;94.10
14242;BME280;7205;50.864;12.766;2023-02-13T03:42:08;99705.31;;;8.21;94.05
14242;BME280;7205;50.864;12.766;2023-02-13T03:44:40;99712.25;;;8.22;94.33
14242;BME280;7205;50.864;12.766;2023-02-13T03:47:09;99708.78;;;8.22;93.56
14242;BME280;7205;50.864;12.766;2023-02-13T03:49:40;99703.63;;;8.20;93.54
14242;BME280;7205;50.864;12.766;2023-02-13T03:52:29;99706.28;;;8.20;93.83
14242;BME280;7205;50.864;12.766;2023-02-13T03:55:04;99702.66;;;8.21;93.46
14242;BME280;7205;50.864;12.766;2023-02-13T03:57:53;99706.28;;;8.20;93.71
14242;BME280;7205;50.864;12.766;2023-02-13T04:00:43;99713.31;;;8.20;92.97
14242;BME280;7205;50.864;12.766;2023-02-13T04:03:14;99722.06;;;8.20;92.67
14242;BME280;7205;50.864;12.766;2023-02-13T04:05:47;99710.91;;;8.17;92.84
14242;BME280;7205;50.864;12.766;2023-02-13T04:08:15;99716.16;;;8.17;92.67
14242;BME280;7205;50.864;12.766;2023-02-13T04:10:49;99717.00;;;8.17;92.53
14242;BME280;7205;50.864;12.766;2023-02-13T04:13:21;99718.91;;;8.15;91.78
14242;BME280;7205;50.864;12.766;2023-02-13T04:15:55;99727.00;;;8.12;92.21
14242;BME280;7205;50.864;12.766;2023-02-13T04:18:26;99723.66;;;8.10;91.62
14242;BME280;7205;50.864;12.766;2023-02-13T04:20:54;99725.56;;;8.08;91.55
14242;BME280;7205;50.864;12.766;2023-02-13T04:23:21;99722.19;;;8.06;91.91
14242;BME280;7205;50.864;12.766;2023-02-13T04:25:51;99720.50;;;8.05;91.38
14242;BME280;7205;50.864;12.766;2023-02-13T04:28:19;99720.81;;;8.01;91.01
14242;BME280;7205;50.864;12.766;2023-02-13T04:30:46;99727.16;;;7.98;91.24
14242;BME280;7205;50.864;12.766;2023-02-13T04:33:14;99716.09;;;7.93;90.90
14242;BME280;7205;50.864;12.766;2023-02-13T04:35:41;99710.31;;;7.88;90.52
14242;BME280;7205;50.864;12.766;2023-02-13T04:38:07;99714.09;;;7.84;90.33
14242;BME280;7205;50.864;12.766;2023-02-13T04:40:34;99711.69;;;7.81;90.48
14242;BME280;7205;50.864;12.766;2023-02-13T04:43:03;99716.31;;;7.78;90.73
14242;BME280;7205;50.864;12.766;2023-02-13T04:45:29;99705.06;;;7.76;90.47
14242;BME280;7205;50.864;12.766;2023-02-13T04:47:57;99705.16;;;7.74;90.53
14242;BME280;7205;50.864;12.766;2023-02-13T04:50:24;99705.28;;;7.73;90.55
14242;BME280;7205;50.864;12.766;2023-02-13T04:52:52;99702.75;;;7.71;90.81
14242;BME280;7205;50.864;12.766;2023-02-13T04:55:20;99702.75;;;7.71;90.76
14242;BME280;7205;50.864;12.766;2023-02-13T04:57:47;99695.72;;;7.72;91.03
14242;BME280;7205;50.864;12.766;2023-02-13T05:00:16;99699.09;;;7.74;90.77
14242;BME280;7205;50.864;12.766;2023-02-13T05:02:43;99697.28;;;7.74;91.13
14242;BME280;7205;50.864;12.766;2023-02-13T05:05:10;99704.34;;;7.74;91.60
14242;BME280;7205;50.864;12.766;2023-02-13T05:07:36;99692.88;;;7.75;90.98
14242;BME280;7205;50.864;12.766;2023-02-13T05:10:04;99692.03;;;7.74;90.75
14242;BME280;7205;50.864;12.766;2023-02-13T05:12:31;99693.91;;;7.72;91.13
14242;BME280;7205;50.864;12.766;2023-02-13T05:14:57;99705.41;;;7.71;90.93
14242;BME280;7205;50.864;12.766;2023-02-13T05:17:26;99703.91;;;7.67;90.92
14242;BME280;7205;50.864;12.766;2023-02-13T05:19:52;99704.97;;;7.64;90.61
14242;BME280;7205;50.864;12.766;2023-02-13T05:22:19;99698.25;;;7.60;90.53
14242;BME280;7205;50.864;12.766;2023-02-13T05:25:04;99696.78;;;7.56;89.98
14242;BME280;7205;50.864;12.766;2023-02-13T05:27:30;99691.81;;;7.52;90.17
14242;BME280;7205;50.864;12.766;2023-02-13T05:29:57;99698.16;;;7.49;90.22
14242;BME280;7205;50.864;12.766;2023-02-13T05:32:23;99699.19;;;7.47;89.97
14242;BME280;7205;50.864;12.766;2023-02-13T05:34:51;99687.09;;;7.44;90.15
14242;BME280;7205;50.864;12.766;2023-02-13T05:37:18;99695.91;;;7.43;90.27
14242;BME280;7205;50.864;12.766;2023-02-13T05:39:45;99697.94;;;7.40;89.93
14242;BME280;7205;50.864;12.766;2023-02-13T05:42:12;99697.31;;;7.36;90.16
14242;BME280;7205;50.864;12.766;2023-02-13T05:44:38;99697.72;;;7.30;89.95
14242;BME280;7205;50.864;12.766;2023-02-13T05:47:05;99708.31;;;7.29;89.83
14242;BME280;7205;50.864;12.766;2023-02-13T05:49:32;99708.53;;;7.26;90.39
14242;BME280;7205;50.864;12.766;2023-02-13T05:52:00;99707.69;;;7.25;90.31
14242;BME280;7205;50.864;12.766;2023-02-13T05:54:27;99703.50;;;7.23;90.65
14242;BME280;7205;50.864;12.766;2023-02-13T05:56:54;99700.97;;;7.21;90.11
14242;BME280;7205;50.864;12.766;2023-02-13T05:59:21;99701.16;;;7.18;90.00
14242;BME280;7205;50.864;12.766;2023-02-13T06:01:48;99705.88;;;7.13;90.03
14242;BME280;7205;50.864;12.766;2023-02-13T06:04:14;99709.78;;;7.08;90.08
14242;BME280;7205;50.864;12.766;2023-02-13T06:06:41;99709.25;;;7.03;89.93
14242;BME280;7205;50.864;12.766;2023-02-13T06:09:10;99703.34;;;6.99;90.33
14242;BME280;7205;50.864;12.766;2023-02-13T06:11:37;99707.13;;;6.95;90.44
14242;BME280;7205;50.864;12.766;2023-02-13T06:14:04;99704.69;;;6.92;90.86
14242;BME280;7205;50.864;12.766;2023-02-13T06:16:31;99708.44;;;6.88;90.50
14242;BME280;7205;50.864;12.766;2023-02-13T06:18:59;99713.09;;;6.85;90.68
14242;BME280;7205;50.864;12.766;2023-02-13T06:21:26;99716.75;;;6.82;91.18
14242;BME280;7205;50.864;12.766;2023-02-13T06:23:52;99721.16;;;6.82;91.27
14242;BME280;7205;50.864;12.766;2023-02-13T06:26:21;99723.88;;;6.80;91.63
14242;BME280;7205;50.864;12.766;2023-02-13T06:28:48;99729.13;;;6.80;91.95
14242;BME280;7205;50.864;12.766;2023-02-13T06:31:15;99737.00;;;6.80;92.13
14242;BME280;7205;50.864;12.766;2023-02-13T06:33:42;99736.91;;;6.82;92.56
14242;BME280;7205;50.864;12.766;2023-02-13T06:36:08;99735.03;;;6.84;92.79
14242;BME280;7205;50.864;12.766;2023-02-13T06:38:35;99739.25;;;6.86;92.86
14242;BME280;7205;50.864;12.766;2023-02-13T06:41:02;99740.16;;;6.85;92.66
14242;BME280;7205;50.864;12.766;2023-02-13T06:43:30;99743.66;;;6.86;93.08
14242;BME280;7205;50.864;12.766;2023-02-13T06:45:57;99740.16;;;6.85;93.16
14242;BME280;7205;50.864;12.766;2023-02-13T06:48:24;99742.78;;;6.85;93.30
14242;BME280;7205;50.864;12.766;2023-02-13T06:50:51;99743.53;;;6.87;93.65
14242;BME280;7205;50.864;12.766;2023-02-13T06:53:18;99744.09;;;6.92;93.66
14242;BME280;7205;50.864;12.766;2023-02-13T06:55:50;99756.09;;;6.96;93.88
14242;BME280;7205;50.864;12.766;2023-02-13T06:58:18;99747.91;;;7.01;93.74
14242;BME280;7205;50.864;12.766;2023-02-13T07:00:47;99741.69;;;7.02;94.18
14242;BME280;7205;50.864;12.766;2023-02-13T07:03:15;99757.97;;;7.07;93.80
14242;BME280;7205;50.864;12.766;2023-02-13T07:05:42;99756.84;;;7.11;94.02
14242;BME280;7205;50.864;12.766;2023-02-13T07:08:10;99754.13;;;7.12;93.91
14242;BME280;7205;50.864;12.766;2023-02-13T07:10:38;99750.38;;;7.16;94.11
14242;BME280;7205;50.864;12.766;2023-02-13T07:13:09;99754.56;;;7.19;94.06
14242;BME280;7205;50.864;12.766;2023-02-13T07:15:36;99754.34;;;7.22;93.68
14242;BME280;7205;50.864;12.766;2023-02-13T07:18:05;99753.31;;;7.24;93.83
14242;BME280;7205;50.864;12.766;2023-02-13T07:20:32;99759.22;;;7.28;93.58
14242;BME280;7205;50.864;12.766;2023-02-13T07:22:59;99745.00;;;7.30;93.41
14242;BME280;7205;50.864;12.766;2023-02-13T07:25:27;99745.75;;;7.32;93.15
14242;BME280;7205;50.864;12.766;2023-02-13T07:27:55;99756.91;;;7.36;93.03
14242;BME280;7205;50.864;12.766;2023-02-13T07:30:26;99754.81;;;7.41;93.78
14242;BME280;7205;50.864;12.766;2023-02-13T07:32:52;99757.84;;;7.47;93.70
14242;BME280;7205;50.864;12.766;2023-02-13T07:35:21;99754.72;;;7.55;93.74
14242;BME280;7205;50.864;12.766;2023-02-13T07:37:48;99749.03;;;7.61;93.50
14242;BME280;7205;50.864;12.766;2023-02-13T07:40:15;99754.72;;;7.68;93.33
14242;BME280;7205;50.864;12.766;2023-02-13T07:42:42;99755.34;;;7.71;93.06
14242;BME280;7205;50.864;12.766;2023-02-13T07:45:09;99748.94;;;7.75;92.50
14242;BME280;7205;50.864;12.766;2023-02-13T07:47:36;99753.03;;;7.79;92.24
14242;BME280;7205;50.864;12.766;2023-02-13T07:50:03;99749.16;;;7.85;92.75
14242;BME280;7205;50.864;12.766;2023-02-13T07:52:32;99751.56;;;7.88;91.95
14242;BME280;7205;50.864;12.766;2023-02-13T07:54:58;99755.66;;;7.92;92.14
14242;BME280;7205;50.864;12.766;2023-02-13T07:57:25;99753.78;;;7.94;91.09
14242;BME280;7205;50.864;12.766;2023-02-13T07:59:52;99749.34;;;7.94;90.99
14242;BME280;7205;50.864;12.766;2023-02-13T08:02:19;99746.72;;;7.94;90.74
14242;BME280;7205;50.864;12.766;2023-02-13T08:04:45;99744.81;;;7.96;90.54
14242;BME280;7205;50.864;12.766;2023-02-13T08:07:13;99743.66;;;8.00;91.03
14242;BME280;7205;50.864;12.766;2023-02-13T08:09:43;99744.19;;;8.05;90.96
14242;BME280;7205;50.864;12.766;2023-02-13T08:12:43;99749.97;;;8.10;89.79
14242;BME280;7205;50.864;12.766;2023-02-13T08:15:11;99751.63;;;8.11;90.25
14242;BME280;7205;50.864;12.766;2023-02-13T08:17:38;99745.53;;;8.11;89.24
14242;BME280;7205;50.864;12.766;2023-02-13T08:20:07;99750.09;;;8.09;89.08
14242;BME280;7205;50.864;12.766;2023-02-13T08:22:35;99757.97;;;8.09;88.41
14242;BME280;7205;50.864;12.766;2023-02-13T08:25:04;99763.94;;;8.11;88.63
14242;BME280;7205;50.864;12.766;2023-02-13T08:27:31;99757.00;;;8.10;88.18
14242;BME280;7205;50.864;12.766;2023-02-13T08:29:58;99762.38;;;8.08;87.30
14242;BME280;7205;50.864;12.766;2023-02-13T08:32:26;99761.44;;;8.09;87.31
14242;BME280;7205;50.864;12.766;2023-02-13T08:34:53;99763.84;;;8.12;87.88
14242;BME280;7205;50.864;12.766;2023-02-13T08:37:19;99764.56;;;8.14;87.41
14242;BME280;7205;50.864;12.766;2023-02-13T08:39:46;99768.91;;;8.15;87.36
14242;BME280;7205;50.864;12.766;2023-02-13T08:42:14;99763.00;;;8.12;87.30
14242;BME280;7205;50.864;12.766;2023-02-13T08:44:41;99765.03;;;8.08;86.80
14242;BME280;7205;50.864;12.766;2023-02-13T08:47:08;99767.53;;;8.10;87.07
14242;BME280;7205;50.864;12.766;2023-02-13T08:49:35;99765.53;;;8.13;86.69
14242;BME280;7205;50.864;12.766;2023-02-13T08:52:02;99765.31;;;8.16;87.23
14242;BME280;7205;50.864;12.766;2023-02-13T08:54:30;99754.06;;;8.14;87.06
14242;BME280;7205;50.864;12.766;2023-02-13T08:56:57;99753.00;;;8.17;86.70
14242;BME280;7205;50.864;12.766;2023-02-13T08:59:25;99763.31;;;8.20;86.60
14242;BME280;7205;50.864;12.766;2023-02-13T09:01:52;99763.19;;;8.21;86.59
14242;BME280;7205;50.864;12.766;2023-02-13T09:04:18;99762.56;;;8.18;85.52
14242;BME280;7205;50.864;12.766;2023-02-13T09:06:45;99761.00;;;8.15;85.00
14242;BME280;7205;50.864;12.766;2023-02-13T09:09:12;99765.44;;;8.15;84.98
14242;BME280;7205;50.864;12.766;2023-02-13T09:11:40;99764.78;;;8.11;84.66
14242;BME280;7205;50.864;12.766;2023-02-13T09:14:07;99766.69;;;8.09;84.08
14242;BME280;7205;50.864;12.766;2023-02-13T09:16:35;99764.16;;;8.08;84.22
14242;BME280;7205;50.864;12.766;2023-02-13T09:19:02;99768.50;;;8.09;84.21
14242;BME280;7205;50.864;12.766;2023-02-13T09:21:29;99772.81;;;8.10;83.99
14242;BME280;7205;50.864;12.766;2023-02-13T09:23:56;99781.66;;;8.09;83.24
14242;BME280;7205;50.864;12.766;2023-02-13T09:26:23;99776.47;;;8.07;83.18
14242;BME280;7205;50.864;12.766;2023-02-13T09:28:49;99775.53;;;8.08;83.19
14242;BME280;7205;50.864;12.766;2023-02-13T09:31:18;99766.56;;;8.11;83.73
14242;BME280;7205;50.864;12.766;2023-02-13T09:33:47;99768.78;;;8.17;83.75
14242;BME280;7205;50.864;12.766;2023-02-13T09:36:16;99780.41;;;8.27;84.58
14242;BME280;7205;50.864;12.766;2023-02-13T09:38:45;99782.97;;;8.39;85.06
14242;BME280;7205;50.864;12.766;2023-02-13T09:41:14;99785.91;;;8.47;84.12
14242;BME280;7205;50.864;12.766;2023-02-13T09:43:45;99781.91;;;8.54;83.89
14242;BME280;7205;50.864;12.766;2023-02-13T09:46:15;99782.19;;;8.62;84.15
14242;BME280;7205;50.864;12.766;2023-02-13T09:48:48;99782.59;;;8.69;83.87
14242;BME280;7205;50.864;12.766;2023-02-13T09:51:19;99767.31;;;8.74;83.12
14242;BME280;7205;50.864;12.766;2023-02-13T09:53:51;99773.69;;;8.82;83.36
14242;BME280;7205;50.864;12.766;2023-02-13T09:56:34;99774.19;;;8.87;81.92
14242;BME280;7205;50.864;12.766;2023-02-13T09:59:11;99773.03;;;8.92;80.96
14242;BME280;7205;50.864;12.766;2023-02-13T10:01:44;99775.19;;;8.98;80.63
14242;BME280;7205;50.864;12.766;2023-02-13T10:04:24;99779.81;;;9.07;81.04
14242;BME280;7205;50.864;12.766;2023-02-13T10:07:03;99778.50;;;9.12;79.89
14242;BME280;7205;50.864;12.766;2023-02-13T10:09:38;99778.41;;;9.14;79.72
14242;BME280;7205;50.864;12.766;2023-02-13T10:12:19;99777.13;;;9.19;79.69
14242;BME280;7205;50.864;12.766;2023-02-13T10:14:57;99779.41;;;9.24;79.10
14242;BME280;7205;50.864;12.766;2023-02-13T10:17:31;99781.69;;;9.28;78.79
14242;BME280;7205;50.864;12.766;2023-02-13T10:20:04;99785.66;;;9.34;78.39
14242;BME280;7205;50.864;12.766;2023-02-13T10:22:35;99787.00;;;9.39;78.00
14242;BME280;7205;50.864;12.766;2023-02-13T10:25:07;99774.66;;;9.40;76.89
14242;BME280;7205;50.864;12.766;2023-02-13T10:27:39;99777.16;;;9.41;76.90
14242;BME280;7205;50.864;12.766;2023-02-13T10:30:15;99770.97;;;9.42;76.10
14242;BME280;7205;50.864;12.766;2023-02-13T10:32:58;99769.13;;;9.43;75.80
14242;BME280;7205;50.864;12.766;2023-02-13T10:35:49;99768.19;;;9.44;75.62
14242;BME280;7205;50.864;12.766;2023-02-13T10:38:20;99761.97;;;9.45;75.37
14242;BME280;7205;50.864;12.766;2023-02-13T10:40:57;99756.81;;;9.43;75.13
14242;BME280;7205;50.864;12.766;2023-02-13T10:43:37;99758.94;;;9.38;74.06
14242;BME280;7205;50.864;12.766;2023-02-13T10:46:10;99759.31;;;9.34;74.26
14242;BME280;7205;50.864;12.766;2023-02-13T10:48:56;99761.94;;;9.34;74.13
14242;BME280;7205;50.864;12.766;2023-02-13T10:51:31;99754.03;;;9.34;74.73
14242;BME280;7205;50.864;12.766;2023-02-13T10:54:20;99745.75;;;9.38;74.39
14242;BME280;7205;50.864;12.766;2023-02-13T10:56:56;99743.75;;;9.42;74.58
14242;BME280;7205;50.864;12.766;2023-02-13T10:59:53;99738.22;;;9.45;75.00
14242;BME280;7205;50.864;12.766;2023-02-13T11:02:26;99742.22;;;9.50;74.87
14242;BME280;7205;50.864;12.766;2023-02-13T11:04:58;99734.41;;;9.60;75.53
14242;BME280;7205;50.864;12.766;2023-02-13T11:07:29;99731.22;;;9.67;74.56
14242;BME280;7205;50.864;12.766;2023-02-13T11:09:59;99730.00;;;9.71;74.18
14242;BME280;7205;50.864;12.766;2023-02-13T11:12:30;99728.81;;;9.75;73.74
14242;BME280;7205;50.864;12.766;2023-02-13T11:14:59;99722.22;;;9.81;73.45
14242;BME280;7205;50.864;12.766;2023-02-13T11:17:29;99720.91;;;9.86;73.24
14242;BME280;7205;50.864;12.766;2023-02-13T11:19:58;99719.84;;;9.89;72.58
14242;BME280;7205;50.864;12.766;2023-02-13T11:22:30;99711.53;;;9.93;72.72
14242;BME280;7205;50.864;12.766;2023-02-13T11:25:01;99709.25;;;10.00;72.42
14242;BME280;7205;50.864;12.766;2023-02-13T11:27:32;99705.69;;;10.01;71.82
14242;BME280;7205;50.864;12.766;2023-02-13T11:30:01;99695.25;;;9.99;70.97
14242;BME280;7205;50.864;12.766;2023-02-13T11:32:30;99696.44;;;9.95;70.00
14242;BME280;7205;50.864;12.766;2023-02-13T11:35:17;99690.06;;;9.87;70.15
14242;BME280;7205;50.864;12.766;2023-02-13T11:38:10;99687.19;;;9.90;70.74
14242;BME280;7205;50.864;12.766;2023-02-13T11:40:37;99690.44;;;9.93;71.38
14242;BME280;7205;50.864;12.766;2023-02-13T11:43:06;99691.88;;;9.97;70.90
14242;BME280;7205;50.864;12.766;2023-02-13T11:45:34;99689.84;;;10.01;71.47
14242;BME280;7205;50.864;12.766;2023-02-13T11:48:08;99691.25;;;10.05;70.53
14242;BME280;7205;50.864;12.766;2023-02-13T11:50:35;99685.97;;;10.05;70.15
14242;BME280;7205;50.864;12.766;2023-02-13T11:53:06;99691.50;;;10.02;70.15
14242;BME280;7205;50.864;12.766;2023-02-13T11:55:35;99685.75;;;9.97;69.12
14242;BME280;7205;50.864;12.766;2023-02-13T11:58:04;99679.28;;;9.90;69.70
14242;BME280;7205;50.864;12.766;2023-02-13T12:00:47;99693.81;;;9.84;68.95
14242;BME280;7205;50.864;12.766;2023-02-13T12:03:26;99698.81;;;9.76;68.86
14242;BME280;7205;50.864;12.766;2023-02-13T12:06:02;99687.19;;;9.68;68.86
14242;BME280;7205;50.864;12.766;2023-02-13T12:08:32;99685.63;;;9.65;69.15
14242;BME280;7205;50.864;12.766;2023-02-13T12:11:02;99691.75;;;9.66;69.48
14242;BME280;7205;50.864;12.766;2023-02-13T12:13:32;99688.53;;;9.62;69.29
14242;BME280;7205;50.864;12.766;2023-02-13T12:16:05;99690.31;;;9.62;69.42
14242;BME280;7205;50.864;12.766;2023-02-13T12:18:38;99683.13;;;9.64;70.01
14242;BME280;7205;50.864;12.766;2023-02-13T12:21:21;99682.63;;;9.70;69.86
14242;BME280;7205;50.864;12.766;2023-02-13T12:24:02;99692.25;;;9.71;69.52
14242;BME280;7205;50.864;12.766;2023-02-13T12:26:32;99694.41;;;9.66;69.36
14242;BME280;7205;50.864;12.766;2023-02-13T12:29:23;99687.78;;;9.60;70.05
14242;BME280;7205;50.864;12.766;2023-02-13T12:32:03;99686.09;;;9.48;69.18
14242;BME280;7205;50.864;12.766;2023-02-13T12:34:52;99690.75;;;9.34;68.81
14242;BME280;7205;50.864;12.766;2023-02-13T12:37:31;99687.50;;;9.19;69.06
14242;BME280;7205;50.864;12.766;2023-02-13T12:40:21;99689.09;;;8.98;69.24
14242;BME280;7205;50.864;12.766;2023-02-13T12:43:06;99689.72;;;8.78;69.27
14242;BME280;7205;50.864;12.766;2023-02-13T12:45:37;99692.66;;;8.62;70.20
14242;BME280;7205;50.864;12.766;2023-02-13T12:48:19;99691.25;;;8.46;70.76
14242;BME280;7205;50.864;12.766;2023-02-13T12:50:56;99693.09;;;8.33;70.64
14242;BME280;7205;50.864;12.766;2023-02-13T12:56:36;99678.94;;;8.10;71.15
14242;BME280;7205;50.864;12.766;2023-02-13T12:59:09;99680.44;;;8.02;71.63
14242;BME280;7205;50.864;12.766;2023-02-13T13:04:45;99675.16;;;7.89;72.82
14242;BME280;7205;50.864;12.766;2023-02-13T13:07:42;99673.41;;;7.90;73.25
14242;BME280;7205;50.864;12.766;2023-02-13T13:10:26;99674.94;;;7.92;73.79
14242;BME280;7205;50.864;12.766;2023-02-13T13:13:03;99672.84;;;7.97;74.58
14242;BME280;7205;50.864;12.766;2023-02-13T13:15:38;99675.06;;;8.03;74.16
14242;BME280;7205;50.864;12.766;2023-02-13T13:18:19;99676.19;;;8.12;75.05
14242;BME280;7205;50.864;12.766;2023-02-13T13:21:04;99679.94;;;8.20;74.89
14242;BME280;7205;50.864;12.766;2023-02-13T13:23:39;99682.38;;;8.23;74.69
14242;BME280;7205;50.864;12.766;2023-02-13T13:26:17;99672.16;;;8.19;74.26
14242;BME280;7205;50.864;12.766;2023-02-13T13:28:51;99663.66;;;8.15;73.93
14242;BME280;7205;50.864;12.766;2023-02-13T13:31:20;99665.53;;;8.13;74.49
14242;BME280;7205;50.864;12.766;2023-02-13T13:33:50;99664.47;;;8.16;75.05
14242;BME280;7205;50.864;12.766;2023-02-13T13:36:30;99670.34;;;8.19;75.07
14242;BME280;7205;50.864;12.766;2023-02-13T13:39:05;99664.81;;;8.24;75.12
14242;BME280;7205;50.864;12.766;2023-02-13T13:41:40;99662.69;;;8.29;75.73